Terminal Aerodrome Forecast
Issued by NWS Binghamton, NY

Home | Current Version | Previous Version | Text Only | Print | Product List | Glossary On
Versions: 1 2 3 4 5 6 7 8 9 10 11 12 13 14 15 16 17
772
FTUS41 KBGM 012337
TAFSYR
TAF
KSYR 012337Z 0200/0224 08008KT 6SM -SHRA BR BKN015 OVC035
     FM020300 08005KT 5SM -DZ BR OVC012
     FM021000 VRB05KT 6SM -RA BR BKN008 OVC012
     FM021800 32008KT P6SM BKN015 OVC025=

USA.gov is the U.S. government's official web portal to all federal, state and local government web resources and services.